Time;durP1;ratioP1;P1;durP2;ratioP2;P2;SDS_P1;SDS_P2;PMS_P1;PMS_P2;Temp;Humidity;BMP_temperature;BMP_pressure;BME280_temperature;BME280_humidity;BME280_pressure;Samples;Min_cycle;Max_cycle;Signal;HPM_P1;HPM_P2
2022/10/30 00:00:40;;;;;;;11.15;7.03;;;12.80;85.60;;;;;;5134342;27;20219;-66
2022/10/30 00:03:10;;;;;;;7.70;5.55;;;12.70;85.50;;;;;;5126224;27;20197;-67
2022/10/30 00:05:46;;;;;;;13.60;6.10;;;12.70;85.80;;;;;;5116419;27;20184;-66
2022/10/30 00:08:18;;;;;;;15.85;6.57;;;12.60;85.80;;;;;;5133603;27;20254;-66
2022/10/30 00:10:49;;;;;;;13.35;6.13;;;12.60;86.40;;;;;;5130224;27;20180;-66
2022/10/30 00:13:16;;;;;;;21.13;7.90;;;12.50;86.60;;;;;;5113569;27;20189;-66
2022/10/30 00:15:47;;;;;;;21.23;6.97;;;12.50;86.70;;;;;;5115473;27;20234;-66
2022/10/30 00:18:15;;;;;;;19.65;11.43;;;12.50;86.80;;;;;;5133931;27;20192;-66
2022/10/30 00:20:42;;;;;;;16.20;6.88;;;12.40;86.90;;;;;;5131626;27;20220;-66
2022/10/30 00:23:09;;;;;;;23.55;8.90;;;12.40;87.50;;;;;;5113089;28;20276;-66
2022/10/30 00:25:37;;;;;;;15.90;8.77;;;12.40;87.60;;;;;;5113703;28;20222;-66
2022/10/30 00:28:07;;;;;;;19.02;8.25;;;12.30;88.10;;;;;;5133855;27;20291;-66
2022/10/30 00:30:41;;;;;;;17.92;7.88;;;12.40;87.20;;;;;;5129639;27;20225;-66
2022/10/30 00:33:08;;;;;;;16.15;6.78;;;12.30;87.00;;;;;;5113390;28;20185;-67
2022/10/30 00:35:35;;;;;;;19.67;6.55;;;12.30;87.00;;;;;;5116429;27;20710;-67
2022/10/30 00:38:02;;;;;;;10.70;5.20;;;12.30;87.00;;;;;;5133469;27;20198;-66
2022/10/30 00:40:29;;;;;;;12.52;6.47;;;12.30;87.00;;;;;;5114227;27;20227;-68
2022/10/30 00:42:56;;;;;;;12.15;4.70;;;12.20;86.60;;;;;;5132803;27;20883;-67
2022/10/30 00:45:25;;;;;;;12.82;5.97;;;12.20;86.50;;;;;;5131364;27;20223;-66
2022/10/30 00:47:58;;;;;;;11.93;5.00;;;12.10;86.60;;;;;;5112246;28;20188;-67
2022/10/30 00:50:27;;;;;;;18.08;5.68;;;12.10;86.70;;;;;;5112285;27;20222;-67
2022/10/30 00:52:59;;;;;;;10.65;5.22;;;12.10;86.90;;;;;;5132700;27;20192;-66
2022/10/30 00:55:30;;;;;;;12.85;6.43;;;12.00;86.70;;;;;;5132377;27;20191;-67
2022/10/30 00:58:03;;;;;;;12.73;5.20;;;12.00;86.90;;;;;;5091721;28;20288;-66
2022/10/30 01:00:35;;;;;;;10.27;5.45;;;12.00;87.20;;;;;;5091355;28;20227;-71
2022/10/30 01:03:04;;;;;;;9.00;5.18;;;12.10;87.90;;;;;;5115346;28;20573;-66
2022/10/30 01:05:34;;;;;;;9.05;4.82;;;12.10;87.70;;;;;;5111758;28;20184;-66
2022/10/30 01:08:01;;;;;;;11.63;6.95;;;12.00;87.40;;;;;;5131816;27;20222;-66
2022/10/30 01:10:29;;;;;;;9.00;5.35;;;12.00;87.00;;;;;;5132448;27;20199;-66
2022/10/30 01:12:59;;;;;;;7.55;4.90;;;12.00;86.60;;;;;;5112399;27;20598;-65
2022/10/30 01:15:33;;;;;;;11.35;4.75;;;11.90;86.40;;;;;;5111832;28;20199;-67
2022/10/30 01:18:30;;;;;;;9.57;5.05;;;11.90;86.70;;;;;;5130855;28;20560;-67
2022/10/30 01:21:25;;;;;;;9.82;4.80;;;11.90;87.00;;;;;;5115015;27;20272;-66
2022/10/30 01:24:05;;;;;;;9.30;4.65;;;11.80;87.40;;;;;;5106420;28;20669;-66
2022/10/30 01:26:45;;;;;;;12.77;5.82;;;11.70;88.10;;;;;;5116900;28;20652;-67
2022/10/30 01:29:28;;;;;;;10.25;5.05;;;11.80;88.70;;;;;;5132041;27;20196;-66
2022/10/30 01:32:13;;;;;;;11.38;5.53;;;11.70;89.20;;;;;;5123117;27;20271;-66
2022/10/30 01:34:56;;;;;;;8.77;5.07;;;11.60;89.20;;;;;;5111386;28;20200;-67
2022/10/30 01:37:32;;;;;;;12.02;5.07;;;11.60;89.40;;;;;;5122495;28;20188;-66
2022/10/30 01:40:17;;;;;;;9.45;3.83;;;11.60;89.10;;;;;;5132154;27;20240;-67
2022/10/30 01:42:51;;;;;;;9.30;4.35;;;11.60;88.90;;;;;;5116919;27;20237;-66
2022/10/30 01:45:24;;;;;;;9.18;3.60;;;11.60;88.40;;;;;;5111399;28;20288;-66
2022/10/30 01:48:17;;;;;;;9.20;4.88;;;11.60;88.30;;;;;;5125995;28;20194;-66
2022/10/30 01:50:53;;;;;;;8.82;4.43;;;11.50;88.30;;;;;;5132461;27;20298;-66
2022/10/30 01:53:34;;;;;;;9.43;3.97;;;11.50;88.30;;;;;;5113997;27;20652;-66
2022/10/30 01:56:15;;;;;;;10.15;4.45;;;11.60;88.20;;;;;;5112350;28;20199;-66
2022/10/30 01:58:51;;;;;;;6.53;4.10;;;11.60;88.30;;;;;;5091802;28;20235;-66
2022/10/30 02:01:19;;;;;;;7.03;4.45;;;11.60;87.60;;;;;;5091981;28;20242;-67
2022/10/30 02:03:48;;;;;;;12.70;5.75;;;11.60;87.50;;;;;;5092054;28;20544;-66
2022/10/30 02:06:25;;;;;;;5.45;4.22;;;11.60;88.30;;;;;;5096432;28;20213;-66
2022/10/30 02:08:55;;;;;;;6.35;4.10;;;11.60;88.60;;;;;;5112035;28;20642;-66
2022/10/30 02:11:24;;;;;;;9.57;3.80;;;11.60;88.30;;;;;;5115693;28;20184;-67
2022/10/30 02:13:53;;;;;;;8.30;3.67;;;11.60;88.20;;;;;;5133031;27;20275;-66
2022/10/30 02:16:21;;;;;;;7.82;3.75;;;11.50;87.80;;;;;;5131114;27;20185;-66
2022/10/30 02:18:50;;;;;;;7.65;4.05;;;11.50;87.50;;;;;;5114889;27;20198;-66
2022/10/30 02:21:22;;;;;;;7.88;3.85;;;11.40;88.10;;;;;;5117262;27;20227;-67
2022/10/30 02:23:49;;;;;;;5.97;3.78;;;11.40;88.40;;;;;;5136303;27;20537;-66
2022/10/30 02:26:16;;;;;;;6.28;3.35;;;11.40;88.40;;;;;;5134875;27;20192;-68
2022/10/30 02:28:44;;;;;;;10.52;3.97;;;11.30;88.30;;;;;;5136211;27;20200;-67
2022/10/30 02:31:11;;;;;;;5.18;2.80;;;11.30;88.70;;;;;;5122159;27;20196;-67
2022/10/30 02:33:38;;;;;;;7.68;3.45;;;11.20;87.30;;;;;;5115265;28;20618;-67
2022/10/30 02:36:07;;;;;;;5.25;3.17;;;11.20;86.70;;;;;;5124317;27;20241;-67
2022/10/30 02:38:37;;;;;;;7.13;3.92;;;11.10;86.80;;;;;;5135849;27;20650;-67
2022/10/30 02:41:04;;;;;;;9.07;3.80;;;11.10;86.90;;;;;;5132970;27;20219;-67
2022/10/30 02:43:31;;;;;;;5.43;3.45;;;11.10;87.80;;;;;;5135917;27;20192;-67
2022/10/30 02:45:58;;;;;;;6.63;3.30;;;11.00;88.20;;;;;;5125794;27;20568;-68
2022/10/30 02:48:26;;;;;;;5.45;3.55;;;11.00;88.40;;;;;;5115371;27;20673;-66
2022/10/30 02:50:53;;;;;;;13.20;4.57;;;11.00;88.40;;;;;;5120959;27;20630;-67
2022/10/30 02:53:20;;;;;;;7.43;3.75;;;10.90;88.50;;;;;;5123281;27;20246;-66
2022/10/30 02:55:49;;;;;;;8.60;3.25;;;10.90;88.90;;;;;;5119292;27;20179;-67
2022/10/30 02:58:16;;;;;;;11.35;3.58;;;10.80;88.90;;;;;;5135665;27;20191;-67
2022/10/30 03:00:44;;;;;;;8.25;3.72;;;10.80;88.80;;;;;;5134289;27;20214;-67
2022/10/30 03:03:12;;;;;;;11.77;4.13;;;10.80;89.60;;;;;;5135554;27;20219;-67
2022/10/30 03:05:46;;;;;;;7.35;4.45;;;10.80;90.10;;;;;;5131055;27;20176;-67
2022/10/30 03:08:18;;;;;;;9.68;4.07;;;10.80;90.30;;;;;;5114961;27;20303;-67
2022/10/30 03:10:45;;;;;;;8.05;3.55;;;10.80;90.60;;;;;;5115022;28;20215;-67
2022/10/30 03:13:14;;;;;;;6.57;3.30;;;10.80;90.80;;;;;;5114032;28;20194;-67
2022/10/30 03:15:41;;;;;;;8.30;3.70;;;10.80;90.60;;;;;;5114838;28;20192;-67
2022/10/30 03:18:09;;;;;;;12.02;3.95;;;10.80;90.60;;;;;;5114787;27;20211;-68
2022/10/30 03:20:38;;;;;;;14.35;3.22;;;10.80;90.70;;;;;;5135508;27;20195;-67
2022/10/30 03:23:05;;;;;;;5.25;3.70;;;10.90;90.70;;;;;;5124468;27;20669;-67
2022/10/30 03:25:32;;;;;;;15.80;6.25;;;10.90;90.40;;;;;;5115235;28;20206;-67
2022/10/30 03:28:00;;;;;;;17.45;7.05;;;10.80;90.00;;;;;;5121964;27;20187;-68
2022/10/30 03:30:29;;;;;;;11.05;5.28;;;10.70;90.60;;;;;;5135253;27;20556;-68
2022/10/30 03:32:56;;;;;;;11.70;4.10;;;10.60;91.10;;;;;;5133788;27;20184;-67
2022/10/30 03:35:23;;;;;;;11.30;4.38;;;10.60;91.40;;;;;;5135078;27;20195;-67
2022/10/30 03:37:50;;;;;;;14.93;4.18;;;10.60;91.40;;;;;;5127675;27;20233;-67
2022/10/30 03:40:17;;;;;;;11.13;3.63;;;10.60;91.80;;;;;;5114540;28;20199;-66
2022/10/30 03:42:45;;;;;;;9.35;4.20;;;10.60;92.20;;;;;;5117643;27;20184;-67
2022/10/30 03:45:12;;;;;;;8.88;3.75;;;10.50;92.40;;;;;;5134981;27;20192;-66
2022/10/30 03:47:42;;;;;;;8.82;3.53;;;10.50;92.30;;;;;;5130302;27;20245;-67
2022/10/30 03:50:10;;;;;;;8.70;2.95;;;10.60;91.90;;;;;;5116879;27;20215;-66
2022/10/30 03:52:37;;;;;;;6.40;3.40;;;10.50;91.50;;;;;;5131171;27;20227;-68
2022/10/30 03:55:09;;;;;;;8.75;3.05;;;10.50;91.60;;;;;;5113072;28;20188;-67
2022/10/30 03:57:37;;;;;;;9.90;4.20;;;10.40;92.00;;;;;;5114720;27;20903;-67
2022/10/30 04:00:06;;;;;;;8.98;5.93;;;10.40;92.60;;;;;;5134548;27;20598;-67
2022/10/30 04:02:33;;;;;;;10.77;4.90;;;10.40;92.80;;;;;;5132910;27;20662;-67
2022/10/30 04:05:02;;;;;;;8.30;4.45;;;10.40;92.70;;;;;;5114175;28;20198;-66
2022/10/30 04:07:30;;;;;;;13.13;5.00;;;10.40;92.80;;;;;;5112297;28;20550;-73
2022/10/30 04:09:57;;;;;;;8.65;4.22;;;10.50;92.90;;;;;;5133649;27;20184;-66
2022/10/30 04:12:24;;;;;;;7.55;4.57;;;10.50;93.00;;;;;;5123928;27;20224;-67
2022/10/30 04:14:52;;;;;;;8.07;4.18;;;10.50;92.90;;;;;;5117191;27;20252;-66
2022/10/30 04:17:21;;;;;;;14.40;4.93;;;10.50;93.30;;;;;;5132291;27;20551;-67
2022/10/30 04:19:49;;;;;;;9.00;4.38;;;10.40;93.40;;;;;;5127423;27;20240;-66
2022/10/30 04:22:18;;;;;;;5.72;4.60;;;10.40;93.30;;;;;;5113668;28;20233;-66
2022/10/30 04:24:47;;;;;;;11.32;3.78;;;10.40;93.30;;;;;;5116816;27;20184;-66
2022/10/30 04:27:15;;;;;;;11.18;3.97;;;10.40;93.20;;;;;;5134124;27;20642;-66
2022/10/30 04:29:42;;;;;;;10.05;4.13;;;10.40;92.60;;;;;;5129393;27;20187;-67
2022/10/30 04:32:10;;;;;;;13.30;4.78;;;10.50;92.20;;;;;;5113442;28;20558;-66
2022/10/30 04:34:38;;;;;;;12.43;3.90;;;10.50;92.20;;;;;;5112412;27;20192;-66
2022/10/30 04:37:05;;;;;;;7.32;4.13;;;10.50;92.00;;;;;;5112651;28;20552;-66
2022/10/30 04:39:34;;;;;;;6.68;3.75;;;10.50;91.90;;;;;;5113294;27;20188;-67
2022/10/30 04:42:02;;;;;;;12.15;4.53;;;10.60;92.00;;;;;;5133924;27;20230;-66
2022/10/30 04:44:30;;;;;;;7.15;3.47;;;10.60;91.70;;;;;;5133878;27;20688;-69
2022/10/30 04:46:57;;;;;;;9.30;3.85;;;10.60;91.60;;;;;;5092772;28;20199;-67
2022/10/30 04:49:26;;;;;;;7.38;3.88;;;10.60;91.40;;;;;;5092959;28;20300;-67
2022/10/30 04:51:53;;;;;;;8.93;4.38;;;10.60;91.60;;;;;;5130830;27;20215;-66
2022/10/30 04:54:21;;;;;;;7.93;3.78;;;10.60;91.50;;;;;;5133854;27;20188;-66
2022/10/30 04:56:49;;;;;;;12.77;4.60;;;10.60;91.50;;;;;;5114177;27;20188;-67
2022/10/30 04:59:17;;;;;;;9.75;4.22;;;10.60;91.50;;;;;;5113131;28;20189;-66
2022/10/30 05:01:44;;;;;;;13.73;4.80;;;10.60;91.40;;;;;;5111667;28;20245;-66
2022/10/30 05:04:12;;;;;;;8.20;4.32;;;10.60;91.10;;;;;;5113374;28;20188;-66
2022/10/30 05:06:39;;;;;;;6.80;3.90;;;10.50;90.90;;;;;;5127223;27;20264;-66
2022/10/30 05:09:07;;;;;;;6.70;3.50;;;10.50;90.60;;;;;;5133732;27;20183;-67
2022/10/30 05:11:34;;;;;;;7.60;4.05;;;10.40;90.30;;;;;;5132151;27;20215;-67
2022/10/30 05:14:04;;;;;;;13.48;4.68;;;10.30;90.30;;;;;;5133737;27;20187;-66
2022/10/30 05:16:31;;;;;;;7.18;3.35;;;10.20;90.00;;;;;;5118218;27;20230;-66
2022/10/30 05:18:59;;;;;;;9.88;3.40;;;10.10;89.80;;;;;;5113221;28;20184;-66
2022/10/30 05:21:27;;;;;;;7.10;2.85;;;10.00;90.00;;;;;;5124194;28;20226;-66
2022/10/30 05:23:54;;;;;;;7.15;3.20;;;9.90;90.70;;;;;;5133748;27;20187;-66
2022/10/30 05:26:21;;;;;;;6.95;3.55;;;9.90;90.90;;;;;;5120559;27;20615;-67
2022/10/30 05:28:49;;;;;;;8.38;3.13;;;9.90;91.20;;;;;;5112622;28;20192;-66
2022/10/30 05:31:19;;;;;;;8.02;3.85;;;9.90;91.20;;;;;;5121689;28;20212;-66
2022/10/30 05:33:46;;;;;;;11.63;4.75;;;9.80;92.30;;;;;;5125915;27;20180;-66
2022/10/30 05:36:13;;;;;;;10.43;5.45;;;9.80;92.50;;;;;;5112780;28;20203;-66
2022/10/30 05:38:43;;;;;;;11.25;4.32;;;9.70;92.90;;;;;;5115849;28;20529;-66
2022/10/30 05:41:11;;;;;;;8.32;4.55;;;9.70;93.30;;;;;;5132200;27;20215;-66
2022/10/30 05:43:38;;;;;;;8.60;4.43;;;9.70;93.50;;;;;;5133440;27;20192;-66
2022/10/30 05:46:06;;;;;;;11.00;4.47;;;9.80;93.40;;;;;;5131512;27;20188;-66
2022/10/30 05:48:38;;;;;;;5.18;3.42;;;9.90;93.30;;;;;;5112542;28;20223;-66
2022/10/30 05:51:07;;;;;;;6.80;3.70;;;9.90;93.40;;;;;;5116044;28;20597;-72
2022/10/30 05:53:34;;;;;;;8.68;3.10;;;9.80;93.20;;;;;;5096272;28;20193;-67
2022/10/30 05:56:02;;;;;;;7.05;3.22;;;9.80;93.30;;;;;;5096358;28;20284;-68
2022/10/30 05:58:30;;;;;;;6.82;3.85;;;9.80;93.20;;;;;;5134880;27;20186;-68
2022/10/30 06:00:58;;;;;;;11.18;3.90;;;9.80;93.10;;;;;;5137244;27;20211;-66
2022/10/30 06:03:25;;;;;;;11.18;4.10;;;9.80;93.10;;;;;;5116576;27;20254;-66
2022/10/30 06:05:55;;;;;;;6.07;3.50;;;9.90;93.30;;;;;;5116158;28;20188;-65
2022/10/30 06:08:23;;;;;;;11.27;4.22;;;9.90;93.50;;;;;;5131910;27;20219;-66
2022/10/30 06:10:50;;;;;;;7.10;3.80;;;10.00;93.00;;;;;;5136879;27;20183;-66
2022/10/30 06:13:19;;;;;;;7.07;3.47;;;10.10;93.00;;;;;;5129669;27;20693;-66
2022/10/30 06:15:47;;;;;;;9.82;5.63;;;10.20;92.50;;;;;;5136957;27;20188;-66
2022/10/30 06:18:15;;;;;;;10.38;3.13;;;10.20;92.60;;;;;;5120036;27;20545;-66
2022/10/30 06:20:44;;;;;;;6.40;3.40;;;10.30;92.70;;;;;;5116023;27;20669;-66
2022/10/30 06:23:13;;;;;;;11.80;3.85;;;10.50;92.80;;;;;;5129094;27;20236;-66
2022/10/30 06:25:41;;;;;;;9.27;4.10;;;10.60;92.70;;;;;;5136784;27;20199;-66
2022/10/30 06:28:09;;;;;;;7.38;3.22;;;10.70;92.60;;;;;;5121512;27;20184;-66
2022/10/30 06:30:36;;;;;;;8.32;4.00;;;10.80;91.90;;;;;;5115958;28;20686;-66
2022/10/30 06:33:05;;;;;;;8.48;3.22;;;10.90;91.10;;;;;;5126791;27;20294;-66
2022/10/30 06:35:33;;;;;;;8.07;3.97;;;11.00;90.80;;;;;;5136283;27;20202;-66
2022/10/30 06:38:00;;;;;;;10.55;3.75;;;11.10;90.90;;;;;;5135069;27;20665;-67
2022/10/30 06:40:30;;;;;;;9.00;4.60;;;11.20;90.60;;;;;;5136244;27;20198;-67
2022/10/30 06:42:57;;;;;;;10.25;4.35;;;11.40;90.30;;;;;;5134653;27;20180;-67
2022/10/30 06:45:29;;;;;;;11.15;4.20;;;11.60;89.40;;;;;;5136259;27;20199;-66
2022/10/30 06:47:56;;;;;;;14.05;4.15;;;11.80;89.80;;;;;;5134908;27;20184;-66
2022/10/30 06:50:24;;;;;;;14.77;5.18;;;11.90;87.70;;;;;;5136151;27;20231;-66
2022/10/30 06:52:53;;;;;;;4.57;3.00;;;12.00;86.00;;;;;;5126029;27;20216;-67
2022/10/30 06:55:23;;;;;;;12.48;5.22;;;12.00;85.20;;;;;;5115021;28;20192;-66
2022/10/30 06:58:02;;;;;;;12.60;5.53;;;11.90;85.30;;;;;;5121832;27;20565;-66
2022/10/30 07:00:30;;;;;;;10.93;5.30;;;12.00;85.00;;;;;;5135615;27;20188;-67
2022/10/30 07:02:59;;;;;;;8.63;4.65;;;12.20;85.50;;;;;;5126505;27;20267;-67
2022/10/30 07:05:26;;;;;;;13.18;6.00;;;12.40;86.90;;;;;;5115349;28;20224;-66
2022/10/30 07:07:57;;;;;;;18.23;7.15;;;12.60;86.60;;;;;;5112032;27;20208;-67
2022/10/30 07:10:24;;;;;;;11.00;6.38;;;13.00;86.10;;;;;;5122751;27;20265;-66
2022/10/30 07:12:53;;;;;;;10.10;4.50;;;13.30;85.10;;;;;;5115044;28;20659;-66
2022/10/30 07:15:22;;;;;;;14.02;4.72;;;13.70;83.70;;;;;;5119123;27;20267;-67
2022/10/30 07:17:56;;;;;;;7.10;4.85;;;14.00;81.80;;;;;;5135627;27;20576;-70
2022/10/30 07:20:27;;;;;;;5.97;5.20;;;14.40;80.40;;;;;;5123503;27;20192;-67
2022/10/30 07:22:55;;;;;;;12.50;5.97;;;14.70;79.50;;;;;;5093980;28;20193;-67
2022/10/30 07:25:22;;;;;;;7.60;4.70;;;15.00;77.30;;;;;;5093405;28;20444;-67
2022/10/30 07:27:51;;;;;;;9.13;6.10;;;15.20;76.80;;;;;;5093286;28;20923;-65
2022/10/30 07:30:22;;;;;;;8.40;5.07;;;15.50;76.10;;;;;;5106848;28;20444;-65
2022/10/30 07:32:58;;;;;;;13.53;4.63;;;16.10;74.30;;;;;;5111834;28;20598;-66
2022/10/30 07:35:25;;;;;;;14.60;5.20;;;16.60;72.40;;;;;;5103453;27;20439;-66
2022/10/30 07:37:53;;;;;;;7.90;4.90;;;17.00;71.40;;;;;;5096171;27;21073;-66
2022/10/30 07:40:21;;;;;;;7.80;4.80;;;17.60;69.80;;;;;;5093698;28;20473;-66
2022/10/30 07:42:48;;;;;;;12.30;7.90;;;18.10;66.00;;;;;;5098336;27;20435;-68
2022/10/30 07:45:16;;;;;;;11.47;5.87;;;18.50;64.90;;;;;;5097973;28;20446;-66
2022/10/30 07:47:45;;;;;;;13.47;6.00;;;18.90;63.90;;;;;;5098434;28;20491;-67
2022/10/30 07:50:12;;;;;;;14.60;5.63;;;19.40;60.70;;;;;;5112168;28;20442;-68
2022/10/30 07:52:39;;;;;;;9.60;5.50;;;19.80;59.20;;;;;;5109131;28;20474;-69
2022/10/30 07:55:08;;;;;;;11.40;5.30;;;20.00;58.50;;;;;;5111632;28;20846;-68
2022/10/30 07:57:38;;;;;;;8.20;5.03;;;20.40;56.70;;;;;;5101421;27;20453;-66
2022/10/30 08:00:07;;;;;;;11.50;4.53;;;21.00;55.10;;;;;;5093362;28;20431;-69
2022/10/30 08:02:35;;;;;;;12.37;4.30;;;21.50;52.80;;;;;;5099652;27;20439;-67
2022/10/30 08:05:05;;;;;;;11.17;4.07;;;21.60;49.90;;;;;;5093050;28;20446;-67
2022/10/30 08:07:35;;;;;;;8.80;4.60;;;21.60;49.80;;;;;;5099562;27;20470;-67
2022/10/30 08:10:03;;;;;;;14.70;5.00;;;22.10;51.20;;;;;;5106990;28;20486;-67
2022/10/30 08:12:32;;;;;;;8.47;3.43;;;22.60;49.20;;;;;;5098871;28;20475;-67
2022/10/30 08:15:00;;;;;;;11.77;3.80;;;23.10;47.20;;;;;;5093137;28;20945;-67
2022/10/30 08:17:27;;;;;;;9.10;4.30;;;23.40;45.70;;;;;;5099215;27;20427;-67
2022/10/30 08:19:55;;;;;;;7.90;3.53;;;23.80;45.70;;;;;;5093225;28;20454;-69
2022/10/30 08:22:25;;;;;;;6.27;2.90;;;24.80;44.90;;;;;;5086925;28;20450;-76
2022/10/30 08:24:52;;;;;;;5.60;3.00;;;25.70;43.60;;;;;;5098825;28;20782;-70
2022/10/30 08:27:20;;;;;;;10.10;3.30;;;26.50;41.50;;;;;;5106044;28;20430;-69
2022/10/30 08:29:47;;;;;;;7.37;4.30;;;27.10;39.70;;;;;;5106307;28;20510;-68
2022/10/30 08:32:14;;;;;;;13.90;3.47;;;27.60;38.50;;;;;;5108548;28;20466;-68
2022/10/30 08:34:42;;;;;;;15.33;4.33;;;28.20;37.90;;;;;;5109997;28;20430;-69
2022/10/30 08:37:10;;;;;;;5.73;3.40;;;28.70;36.30;;;;;;5109382;28;20794;-67
2022/10/30 08:39:39;;;;;;;11.63;4.73;;;29.40;36.00;;;;;;5107400;28;20864;-67
2022/10/30 08:42:06;;;;;;;9.73;4.27;;;30.10;34.20;;;;;;5101142;28;20910;-67
2022/10/30 08:44:34;;;;;;;10.40;5.07;;;30.70;32.90;;;;;;5109396;28;20951;-67
2022/10/30 08:47:01;;;;;;;10.73;3.57;;;31.60;31.80;;;;;;5095751;28;20433;-68
2022/10/30 08:49:29;;;;;;;10.37;4.33;;;32.60;29.70;;;;;;5092563;28;20438;-67
2022/10/30 08:51:56;;;;;;;13.97;4.23;;;33.50;28.20;;;;;;5092555;28;20482;-69
2022/10/30 08:54:23;;;;;;;10.80;4.20;;;34.10;27.70;;;;;;5092400;28;20492;-69
2022/10/30 08:56:53;;;;;;;9.30;5.10;;;34.80;26.70;;;;;;5092398;28;20492;-67
2022/10/30 08:59:20;;;;;;;7.83;4.73;;;35.60;25.40;;;;;;5096065;28;20493;-68
2022/10/30 09:01:49;;;;;;;14.00;5.17;;;36.30;24.70;;;;;;5092127;28;20454;-69
2022/10/30 09:04:17;;;;;;;9.43;3.73;;;36.60;23.40;;;;;;5092170;28;20540;-69
2022/10/30 09:06:46;;;;;;;9.43;3.60;;;36.50;23.80;;;;;;5091479;28;20471;-68
2022/10/30 09:09:15;;;;;;;12.83;3.50;;;36.90;23.30;;;;;;5092058;28;20439;-69
2022/10/30 09:11:42;;;;;;;12.30;4.23;;;37.40;23.90;;;;;;5105979;28;20430;-68
2022/10/30 09:14:11;;;;;;;12.00;3.97;;;38.20;23.40;;;;;;5110125;28;20491;-68
2022/10/30 09:16:38;;;;;;;11.07;4.33;;;39.10;22.30;;;;;;5102853;28;20936;-71
2022/10/30 09:19:06;;;;;;;7.67;3.47;;;39.80;21.90;;;;;;5102901;28;20469;-69
2022/10/30 09:21:33;;;;;;;10.13;3.20;;;40.40;21.20;;;;;;5103367;28;20776;-69
2022/10/30 09:24:00;;;;;;;5.13;3.07;;;40.80;20.00;;;;;;5106149;28;20489;-73
2022/10/30 09:26:29;;;;;;;12.20;3.93;;;41.40;19.20;;;;;;5107279;28;20793;-69
2022/10/30 09:28:56;;;;;;;9.17;3.80;;;41.90;18.50;;;;;;5106602;28;20434;-70
2022/10/30 09:31:25;;;;;;;6.57;3.40;;;42.10;17.10;;;;;;5107749;28;20927;-69
2022/10/30 09:33:52;;;;;;;7.07;3.27;;;42.20;17.40;;;;;;5106984;28;20980;-72
2022/10/30 09:36:19;;;;;;;11.07;3.70;;;42.20;17.80;;;;;;5106517;28;20794;-78
2022/10/30 09:38:46;;;;;;;10.73;3.13;;;42.50;17.50;;;;;;5111359;28;20804;-69
2022/10/30 09:41:35;;;;;;;11.13;3.90;;;42.60;16.10;;;;;;5103570;28;21005;-69
2022/10/30 09:44:15;;;;;;;7.53;3.60;;;42.70;16.60;;;;;;5110808;28;20476;-69
2022/10/30 09:46:58;;;;;;;8.37;4.67;;;43.90;16.60;;;;;;5113092;28;20434;-70
2022/10/30 09:49:55;;;;;;;8.73;4.00;;;44.80;17.50;;;;;;5103274;28;20470;-70
2022/10/30 09:52:28;;;;;;;9.73;3.40;;;45.60;16.80;;;;;;5106100;28;21045;-69
2022/10/30 09:55:24;;;;;;;7.63;3.50;;;46.40;16.40;;;;;;5107839;28;20635;-70
2022/10/30 09:58:00;;;;;;;10.40;3.93;;;47.10;16.00;;;;;;5109789;28;20440;-69
2022/10/30 10:00:33;;;;;;;15.67;3.40;;;47.40;15.30;;;;;;5105053;28;20457;-70
2022/10/30 10:03:17;;;;;;;9.70;4.00;;;47.50;15.20;;;;;;5112374;28;20477;-69
2022/10/30 10:05:48;;;;;;;10.23;3.57;;;47.80;15.30;;;;;;5095692;28;20512;-69
2022/10/30 10:08:19;;;;;;;10.37;3.80;;;47.60;15.00;;;;;;5112896;28;20873;-69
2022/10/30 10:10:50;;;;;;;15.63;3.70;;;46.40;14.70;;;;;;5112126;28;20525;-69
2022/10/30 10:13:30;;;;;;;11.23;3.30;;;46.20;15.70;;;;;;5109197;28;20545;-69
2022/10/30 10:16:03;;;;;;;11.97;3.40;;;46.10;15.60;;;;;;5113307;28;20942;-69
2022/10/30 10:18:37;;;;;;;7.87;3.87;;;46.80;15.60;;;;;;5113298;28;20456;-69
2022/10/30 10:21:14;;;;;;;12.13;3.83;;;47.80;15.60;;;;;;5112950;28;20796;-70
2022/10/30 10:23:48;;;;;;;7.43;3.10;;;48.40;14.60;;;;;;5110612;28;20975;-69
2022/10/30 10:26:30;;;;;;;6.90;3.33;;;48.20;13.60;;;;;;5111662;28;20445;-69
2022/10/30 10:29:21;;;;;;;6.47;3.03;;;46.60;14.30;;;;;;5112189;28;20445;-69
2022/10/30 10:32:02;;;;;;;8.83;2.87;;;46.00;15.00;;;;;;5104824;28;21257;-70
2022/10/30 10:34:46;;;;;;;6.97;3.37;;;45.40;15.50;;;;;;5111642;28;20494;-70
2022/10/30 10:37:27;;;;;;;11.47;4.03;;;45.40;15.80;;;;;;5110462;28;20487;-71
2022/10/30 10:40:12;;;;;;;11.27;3.50;;;46.30;15.20;;;;;;5109916;28;21024;-69
2022/10/30 10:42:50;;;;;;;10.77;3.33;;;47.50;14.70;;;;;;5108450;28;20521;-69
2022/10/30 10:45:29;;;;;;;6.70;3.27;;;47.70;14.00;;;;;;5112532;28;20521;-69
2022/10/30 10:48:24;;;;;;;10.80;4.13;;;46.50;13.60;;;;;;5108741;28;20431;-71
2022/10/30 10:50:58;;;;;;;5.20;2.57;;;45.60;13.60;;;;;;5109102;28;20431;-69
2022/10/30 10:53:31;;;;;;;10.20;3.03;;;45.00;14.70;;;;;;5111901;28;20440;-68
2022/10/30 10:56:00;;;;;;;6.07;3.03;;;45.80;13.00;;;;;;5108576;28;20491;-69
2022/10/30 10:58:35;;;;;;;11.20;3.60;;;46.70;13.40;;;;;;5112050;28;20447;-69
2022/10/30 11:01:04;;;;;;;10.60;3.57;;;47.30;13.20;;;;;;5101047;28;20659;-70
2022/10/30 11:03:50;;;;;;;10.70;3.23;;;48.10;13.20;;;;;;5110006;28;20552;-72
2022/10/30 11:06:26;;;;;;;9.63;4.17;;;48.60;13.30;;;;;;5107532;28;20461;-68
2022/10/30 11:09:07;;;;;;;9.87;3.43;;;48.30;12.40;;;;;;5112032;28;20498;-69
2022/10/30 11:11:34;;;;;;;6.43;2.70;;;48.30;12.40;;;;;;5112497;28;20438;-69
2022/10/30 11:14:12;;;;;;;6.67;2.80;;;48.80;11.50;;;;;;5109825;27;20983;-68
2022/10/30 11:16:54;;;;;;;5.70;2.60;;;49.50;12.10;;;;;;5116506;27;20927;-69
2022/10/30 11:19:21;;;;;;;7.03;3.73;;;50.10;11.20;;;;;;5111409;27;20959;-69
2022/10/30 11:21:57;;;;;;;9.90;4.50;;;50.80;11.70;;;;;;5116497;27;20445;-69
2022/10/30 11:24:31;;;;;;;15.23;3.70;;;51.40;10.50;;;;;;5117877;27;20433;-68
2022/10/30 11:27:08;;;;;;;12.97;4.13;;;51.60;10.00;;;;;;5116084;27;20437;-68
2022/10/30 11:29:36;;;;;;;8.47;2.83;;;52.00;9.50;;;;;;5112882;27;20460;-69
2022/10/30 11:32:05;;;;;;;10.00;2.77;;;52.30;9.50;;;;;;5117226;27;20445;-73
2022/10/30 11:34:34;;;;;;;6.33;3.30;;;52.40;9.40;;;;;;5109118;27;20477;-68
2022/10/30 11:37:04;;;;;;;9.23;3.50;;;52.50;9.50;;;;;;5115335;27;20919;-69
2022/10/30 11:39:33;;;;;;;7.37;3.07;;;52.30;9.10;;;;;;5110765;27;20456;-69
2022/10/30 11:42:06;;;;;;;12.83;3.57;;;52.20;8.70;;;;;;5111240;27;20495;-68
2022/10/30 11:44:37;;;;;;;7.43;2.97;;;51.90;8.60;;;;;;5114079;27;20548;-69
2022/10/30 11:47:06;;;;;;;9.80;3.57;;;51.30;9.20;;;;;;5114008;27;20438;-67
2022/10/30 11:49:45;;;;;;;15.97;4.03;;;50.90;9.80;;;;;;5109028;27;20930;-68
2022/10/30 11:52:21;;;;;;;6.50;3.10;;;50.60;10.30;;;;;;5113627;27;20462;-68
2022/10/30 11:54:53;;;;;;;9.90;3.20;;;49.90;10.60;;;;;;5115367;27;20511;-67
2022/10/30 11:57:27;;;;;;;10.00;2.83;;;49.30;11.20;;;;;;5116464;27;20458;-69
2022/10/30 11:59:56;;;;;;;6.40;2.67;;;49.40;11.20;;;;;;5118345;27;20464;-69
2022/10/30 12:02:27;;;;;;;12.33;8.43;;;50.00;10.60;;;;;;5118138;27;20568;-69
2022/10/30 12:05:01;;;;;;;7.37;3.30;;;50.60;11.10;;;;;;5115866;27;20445;-69
2022/10/30 12:07:37;;;;;;;7.13;3.20;;;50.30;10.40;;;;;;5116158;27;20918;-69
2022/10/30 12:10:24;;;;;;;8.30;3.23;;;49.40;10.70;;;;;;5118121;27;20444;-72
2022/10/30 12:12:52;;;;;;;12.47;3.13;;;49.30;11.00;;;;;;5112729;27;20454;-68
2022/10/30 12:15:24;;;;;;;14.60;3.70;;;49.30;10.50;;;;;;5119126;27;20485;-68
2022/10/30 12:17:53;;;;;;;11.43;4.17;;;49.50;9.90;;;;;;5114603;27;21000;-67
2022/10/30 12:20:21;;;;;;;8.47;3.50;;;49.80;9.90;;;;;;5119618;27;20448;-69
2022/10/30 12:22:49;;;;;;;7.73;2.80;;;49.80;10.50;;;;;;5119188;27;20433;-69
2022/10/30 12:25:24;;;;;;;8.43;3.27;;;49.70;9.50;;;;;;5116230;27;20441;-69
2022/10/30 12:27:59;;;;;;;11.83;3.20;;;49.40;10.20;;;;;;5116949;27;20447;-68
2022/10/30 12:30:28;;;;;;;10.00;2.40;;;49.40;10.30;;;;;;5121062;27;21200;-68
2022/10/30 12:33:02;;;;;;;8.33;3.50;;;49.50;9.90;;;;;;5117203;27;20452;-68
2022/10/30 12:35:42;;;;;;;10.40;3.47;;;48.80;9.70;;;;;;5116727;27;20491;-69
2022/10/30 12:38:19;;;;;;;9.93;3.23;;;48.60;10.00;;;;;;5113991;27;20527;-68
2022/10/30 12:40:59;;;;;;;11.63;2.93;;;48.50;9.60;;;;;;5120400;27;20448;-69
2022/10/30 12:43:27;;;;;;;8.43;2.87;;;48.10;9.90;;;;;;5109722;27;20479;-68
2022/10/30 12:46:05;;;;;;;11.63;3.33;;;47.80;11.00;;;;;;5117896;27;20437;-70
2022/10/30 12:48:37;;;;;;;8.20;3.33;;;47.80;10.30;;;;;;5114882;27;20820;-72
2022/10/30 12:51:17;;;;;;;10.37;3.10;;;47.40;10.70;;;;;;5114462;27;20505;-69
2022/10/30 12:53:52;;;;;;;12.57;3.60;;;47.30;10.80;;;;;;5109599;28;20584;-70
2022/10/30 12:56:27;;;;;;;13.50;3.70;;;47.10;11.00;;;;;;5108611;28;20429;-68
2022/10/30 12:59:03;;;;;;;10.60;3.67;;;46.80;10.70;;;;;;5108077;28;20448;-68
2022/10/30 13:01:35;;;;;;;10.07;3.90;;;46.70;10.90;;;;;;5109230;28;20474;-69